sensor_id;sensor_type;location;lat;lon;timestamp;P1;durP1;ratioP1;P2;durP2;ratioP2
22113;SDS011;11223;49.968;9.062;2023-05-19T00:01:56;3.35;;;1.70;;
22113;SDS011;11223;49.968;9.062;2023-05-19T00:04:24;3.40;;;1.90;;
22113;SDS011;11223;49.968;9.062;2023-05-19T00:06:51;2.72;;;1.55;;
22113;SDS011;11223;49.968;9.062;2023-05-19T00:09:18;2.30;;;2.03;;
22113;SDS011;11223;49.968;9.062;2023-05-19T00:11:44;2.85;;;1.73;;
22113;SDS011;11223;49.968;9.062;2023-05-19T00:14:10;3.17;;;2.70;;
22113;SDS011;11223;49.968;9.062;2023-05-19T00:16:36;3.40;;;2.20;;
22113;SDS011;11223;49.968;9.062;2023-05-19T00:19:03;2.97;;;2.35;;
22113;SDS011;11223;49.968;9.062;2023-05-19T00:21:30;3.25;;;2.28;;
22113;SDS011;11223;49.968;9.062;2023-05-19T00:23:56;2.45;;;1.80;;
22113;SDS011;11223;49.968;9.062;2023-05-19T00:26:22;3.40;;;2.43;;
22113;SDS011;11223;49.968;9.062;2023-05-19T00:28:48;2.03;;;1.90;;
22113;SDS011;11223;49.968;9.062;2023-05-19T00:31:14;1.90;;;1.60;;
22113;SDS011;11223;49.968;9.062;2023-05-19T00:33:40;2.20;;;1.97;;
22113;SDS011;11223;49.968;9.062;2023-05-19T00:36:06;3.03;;;2.40;;
22113;SDS011;11223;49.968;9.062;2023-05-19T00:38:32;1.90;;;1.80;;
22113;SDS011;11223;49.968;9.062;2023-05-19T00:41:00;3.25;;;2.00;;
22113;SDS011;11223;49.968;9.062;2023-05-19T00:43:26;2.92;;;2.67;;
22113;SDS011;11223;49.968;9.062;2023-05-19T00:45:52;2.43;;;1.90;;
22113;SDS011;11223;49.968;9.062;2023-05-19T00:48:17;2.00;;;1.77;;
22113;SDS011;11223;49.968;9.062;2023-05-19T00:50:43;2.57;;;2.27;;
22113;SDS011;11223;49.968;9.062;2023-05-19T00:53:09;4.55;;;1.80;;
22113;SDS011;11223;49.968;9.062;2023-05-19T00:55:36;1.85;;;1.75;;
22113;SDS011;11223;49.968;9.062;2023-05-19T00:58:04;1.70;;;1.60;;
22113;SDS011;11223;49.968;9.062;2023-05-19T01:00:31;4.60;;;2.40;;
22113;SDS011;11223;49.968;9.062;2023-05-19T01:02:56;6.70;;;2.30;;
22113;SDS011;11223;49.968;9.062;2023-05-19T01:05:22;3.87;;;2.50;;
22113;SDS011;11223;49.968;9.062;2023-05-19T01:07:48;2.43;;;2.23;;
22113;SDS011;11223;49.968;9.062;2023-05-19T01:10:18;2.53;;;1.83;;
22113;SDS011;11223;49.968;9.062;2023-05-19T01:12:44;2.45;;;1.85;;
22113;SDS011;11223;49.968;9.062;2023-05-19T01:15:10;2.70;;;1.92;;
22113;SDS011;11223;49.968;9.062;2023-05-19T01:17:40;2.13;;;1.80;;
22113;SDS011;11223;49.968;9.062;2023-05-19T01:30:47;2.22;;;2.03;;
22113;SDS011;11223;49.968;9.062;2023-05-19T01:33:16;5.20;;;2.10;;
22113;SDS011;11223;49.968;9.062;2023-05-19T01:35:43;3.58;;;2.45;;
22113;SDS011;11223;49.968;9.062;2023-05-19T01:38:10;2.40;;;2.20;;
22113;SDS011;11223;49.968;9.062;2023-05-19T01:40:40;2.00;;;1.90;;
22113;SDS011;11223;49.968;9.062;2023-05-19T01:43:08;3.25;;;2.20;;
22113;SDS011;11223;49.968;9.062;2023-05-19T01:45:36;2.30;;;2.10;;
22113;SDS011;11223;49.968;9.062;2023-05-19T01:48:03;2.53;;;2.10;;
22113;SDS011;11223;49.968;9.062;2023-05-19T01:50:30;4.63;;;2.22;;
22113;SDS011;11223;49.968;9.062;2023-05-19T01:52:57;4.00;;;2.55;;
22113;SDS011;11223;49.968;9.062;2023-05-19T01:55:23;4.85;;;2.70;;
22113;SDS011;11223;49.968;9.062;2023-05-19T01:58:09;3.53;;;2.50;;
22113;SDS011;11223;49.968;9.062;2023-05-19T02:03:36;4.65;;;2.42;;
22113;SDS011;11223;49.968;9.062;2023-05-19T02:06:23;2.15;;;1.95;;
22113;SDS011;11223;49.968;9.062;2023-05-19T02:11:51;3.38;;;2.25;;
22113;SDS011;11223;49.968;9.062;2023-05-19T02:14:34;4.65;;;2.50;;
22113;SDS011;11223;49.968;9.062;2023-05-19T02:17:22;2.33;;;2.22;;
22113;SDS011;11223;49.968;9.062;2023-05-19T02:19:49;3.08;;;2.53;;
22113;SDS011;11223;49.968;9.062;2023-05-19T02:22:14;2.58;;;2.38;;
22113;SDS011;11223;49.968;9.062;2023-05-19T02:24:40;5.63;;;2.60;;
22113;SDS011;11223;49.968;9.062;2023-05-19T02:27:06;2.43;;;2.23;;
22113;SDS011;11223;49.968;9.062;2023-05-19T02:29:32;2.43;;;2.23;;
22113;SDS011;11223;49.968;9.062;2023-05-19T02:31:57;3.50;;;2.63;;
22113;SDS011;11223;49.968;9.062;2023-05-19T02:34:24;3.65;;;2.30;;
22113;SDS011;11223;49.968;9.062;2023-05-19T02:36:50;2.80;;;2.35;;
22113;SDS011;11223;49.968;9.062;2023-05-19T02:39:16;3.60;;;2.77;;
22113;SDS011;11223;49.968;9.062;2023-05-19T02:41:41;4.77;;;2.30;;
22113;SDS011;11223;49.968;9.062;2023-05-19T02:44:07;3.67;;;2.67;;
22113;SDS011;11223;49.968;9.062;2023-05-19T02:46:33;3.40;;;2.40;;
22113;SDS011;11223;49.968;9.062;2023-05-19T02:48:58;4.50;;;2.53;;
22113;SDS011;11223;49.968;9.062;2023-05-19T02:51:24;3.70;;;2.73;;
22113;SDS011;11223;49.968;9.062;2023-05-19T02:53:49;4.20;;;2.30;;
22113;SDS011;11223;49.968;9.062;2023-05-19T02:56:15;4.50;;;2.67;;
22113;SDS011;11223;49.968;9.062;2023-05-19T02:58:40;3.20;;;2.20;;
22113;SDS011;11223;49.968;9.062;2023-05-19T03:01:08;3.95;;;2.70;;
22113;SDS011;11223;49.968;9.062;2023-05-19T03:03:33;3.30;;;2.55;;
22113;SDS011;11223;49.968;9.062;2023-05-19T03:05:59;2.90;;;2.60;;
22113;SDS011;11223;49.968;9.062;2023-05-19T03:08:25;2.47;;;2.28;;
22113;SDS011;11223;49.968;9.062;2023-05-19T03:10:51;5.28;;;2.95;;
22113;SDS011;11223;49.968;9.062;2023-05-19T03:13:17;2.97;;;2.47;;
22113;SDS011;11223;49.968;9.062;2023-05-19T03:15:42;2.63;;;2.13;;
22113;SDS011;11223;49.968;9.062;2023-05-19T03:18:08;3.22;;;2.92;;
22113;SDS011;11223;49.968;9.062;2023-05-19T03:20:35;4.00;;;2.80;;
22113;SDS011;11223;49.968;9.062;2023-05-19T03:23:02;4.45;;;3.63;;
22113;SDS011;11223;49.968;9.062;2023-05-19T03:25:27;2.93;;;2.73;;
22113;SDS011;11223;49.968;9.062;2023-05-19T03:27:54;2.88;;;2.67;;
22113;SDS011;11223;49.968;9.062;2023-05-19T03:30:20;2.80;;;2.60;;
22113;SDS011;11223;49.968;9.062;2023-05-19T03:32:46;3.97;;;3.30;;
22113;SDS011;11223;49.968;9.062;2023-05-19T03:35:11;3.47;;;3.17;;
22113;SDS011;11223;49.968;9.062;2023-05-19T03:37:37;2.90;;;2.53;;
22113;SDS011;11223;49.968;9.062;2023-05-19T03:40:03;4.20;;;2.80;;
22113;SDS011;11223;49.968;9.062;2023-05-19T03:42:29;3.15;;;2.65;;
22113;SDS011;11223;49.968;9.062;2023-05-19T03:44:55;5.40;;;2.90;;
22113;SDS011;11223;49.968;9.062;2023-05-19T03:47:21;3.57;;;3.00;;
22113;SDS011;11223;49.968;9.062;2023-05-19T03:49:46;2.60;;;2.40;;
22113;SDS011;11223;49.968;9.062;2023-05-19T03:52:12;3.97;;;2.77;;
22113;SDS011;11223;49.968;9.062;2023-05-19T03:54:37;2.93;;;2.60;;
22113;SDS011;11223;49.968;9.062;2023-05-19T03:57:07;5.03;;;3.50;;
22113;SDS011;11223;49.968;9.062;2023-05-19T03:59:33;3.50;;;2.65;;
22113;SDS011;11223;49.968;9.062;2023-05-19T04:02:01;4.22;;;3.35;;
22113;SDS011;11223;49.968;9.062;2023-05-19T04:04:27;3.47;;;2.77;;
22113;SDS011;11223;49.968;9.062;2023-05-19T04:06:53;2.53;;;2.33;;
22113;SDS011;11223;49.968;9.062;2023-05-19T04:09:18;6.70;;;2.40;;
22113;SDS011;11223;49.968;9.062;2023-05-19T04:11:46;2.90;;;2.70;;
22113;SDS011;11223;49.968;9.062;2023-05-19T04:14:12;5.07;;;2.90;;
22113;SDS011;11223;49.968;9.062;2023-05-19T04:16:37;4.97;;;3.13;;
22113;SDS011;11223;49.968;9.062;2023-05-19T04:19:03;2.70;;;2.50;;
22113;SDS011;11223;49.968;9.062;2023-05-19T04:21:28;3.33;;;3.00;;
22113;SDS011;11223;49.968;9.062;2023-05-19T04:23:54;3.03;;;2.73;;
22113;SDS011;11223;49.968;9.062;2023-05-19T04:26:19;3.13;;;2.83;;
22113;SDS011;11223;49.968;9.062;2023-05-19T04:28:46;3.30;;;2.95;;
22113;SDS011;11223;49.968;9.062;2023-05-19T04:31:13;3.28;;;2.78;;
22113;SDS011;11223;49.968;9.062;2023-05-19T04:33:39;2.80;;;2.60;;
22113;SDS011;11223;49.968;9.062;2023-05-19T04:36:05;2.67;;;2.47;;
22113;SDS011;11223;49.968;9.062;2023-05-19T04:38:35;3.03;;;2.72;;
22113;SDS011;11223;49.968;9.062;2023-05-19T04:41:10;3.10;;;2.80;;
22113;SDS011;11223;49.968;9.062;2023-05-19T04:43:36;3.30;;;3.00;;
22113;SDS011;11223;49.968;9.062;2023-05-19T04:46:05;2.42;;;2.22;;
22113;SDS011;11223;49.968;9.062;2023-05-19T04:48:37;3.17;;;2.92;;
22113;SDS011;11223;49.968;9.062;2023-05-19T04:51:04;2.80;;;2.60;;
22113;SDS011;11223;49.968;9.062;2023-05-19T04:53:30;4.15;;;3.00;;
22113;SDS011;11223;49.968;9.062;2023-05-19T04:55:56;3.63;;;2.70;;
22113;SDS011;11223;49.968;9.062;2023-05-19T04:58:22;2.65;;;2.45;;
22113;SDS011;11223;49.968;9.062;2023-05-19T05:00:50;2.92;;;2.67;;
22113;SDS011;11223;49.968;9.062;2023-05-19T05:03:16;3.85;;;2.80;;
22113;SDS011;11223;49.968;9.062;2023-05-19T05:05:42;2.90;;;2.70;;
22113;SDS011;11223;49.968;9.062;2023-05-19T05:08:08;2.90;;;2.57;;
22113;SDS011;11223;49.968;9.062;2023-05-19T05:10:34;2.60;;;2.40;;
22113;SDS011;11223;49.968;9.062;2023-05-19T05:13:00;5.67;;;3.00;;
22113;SDS011;11223;49.968;9.062;2023-05-19T05:15:26;3.42;;;2.92;;
22113;SDS011;11223;49.968;9.062;2023-05-19T05:17:53;6.00;;;3.03;;
22113;SDS011;11223;49.968;9.062;2023-05-19T05:20:20;5.18;;;3.13;;
22113;SDS011;11223;49.968;9.062;2023-05-19T05:22:46;4.28;;;2.42;;
22113;SDS011;11223;49.968;9.062;2023-05-19T05:25:12;2.90;;;2.55;;
22113;SDS011;11223;49.968;9.062;2023-05-19T05:27:38;2.92;;;2.53;;
22113;SDS011;11223;49.968;9.062;2023-05-19T05:30:04;4.27;;;3.27;;
22113;SDS011;11223;49.968;9.062;2023-05-19T05:32:30;3.88;;;2.90;;
22113;SDS011;11223;49.968;9.062;2023-05-19T05:34:56;2.70;;;2.50;;
22113;SDS011;11223;49.968;9.062;2023-05-19T05:37:21;4.67;;;2.70;;
22113;SDS011;11223;49.968;9.062;2023-05-19T05:39:47;2.77;;;2.57;;
22113;SDS011;11223;49.968;9.062;2023-05-19T05:42:13;4.33;;;2.87;;
22113;SDS011;11223;49.968;9.062;2023-05-19T05:44:38;3.07;;;2.80;;
22113;SDS011;11223;49.968;9.062;2023-05-19T05:47:04;3.97;;;2.90;;
22113;SDS011;11223;49.968;9.062;2023-05-19T05:49:30;3.63;;;3.33;;
22113;SDS011;11223;49.968;9.062;2023-05-19T05:51:56;3.50;;;3.20;;
22113;SDS011;11223;49.968;9.062;2023-05-19T05:54:22;2.70;;;2.50;;
22113;SDS011;11223;49.968;9.062;2023-05-19T05:56:48;5.20;;;2.80;;
22113;SDS011;11223;49.968;9.062;2023-05-19T05:59:15;3.03;;;2.80;;
22113;SDS011;11223;49.968;9.062;2023-05-19T06:01:40;3.63;;;2.67;;
22113;SDS011;11223;49.968;9.062;2023-05-19T06:04:07;2.60;;;2.40;;
22113;SDS011;11223;49.968;9.062;2023-05-19T06:06:33;3.10;;;2.83;;
22113;SDS011;11223;49.968;9.062;2023-05-19T06:09:00;3.33;;;2.95;;
22113;SDS011;11223;49.968;9.062;2023-05-19T06:11:25;5.53;;;3.17;;
22113;SDS011;11223;49.968;9.062;2023-05-19T06:13:52;7.00;;;3.78;;
22113;SDS011;11223;49.968;9.062;2023-05-19T06:16:18;3.40;;;3.03;;
22113;SDS011;11223;49.968;9.062;2023-05-19T06:18:43;3.73;;;2.80;;
22113;SDS011;11223;49.968;9.062;2023-05-19T06:21:09;2.67;;;2.07;;
22113;SDS011;11223;49.968;9.062;2023-05-19T06:23:38;2.80;;;2.50;;
22113;SDS011;11223;49.968;9.062;2023-05-19T06:26:04;2.55;;;2.20;;
22113;SDS011;11223;49.968;9.062;2023-05-19T06:28:30;4.32;;;2.70;;
22113;SDS011;11223;49.968;9.062;2023-05-19T06:30:56;3.40;;;2.60;;
22113;SDS011;11223;49.968;9.062;2023-05-19T06:33:22;2.50;;;2.30;;
22113;SDS011;11223;49.968;9.062;2023-05-19T06:35:48;3.53;;;2.60;;
22113;SDS011;11223;49.968;9.062;2023-05-19T06:38:13;3.00;;;2.43;;
22113;SDS011;11223;49.968;9.062;2023-05-19T06:40:39;3.20;;;2.60;;
22113;SDS011;11223;49.968;9.062;2023-05-19T06:43:05;3.20;;;2.90;;
22113;SDS011;11223;49.968;9.062;2023-05-19T06:45:30;2.30;;;2.10;;
22113;SDS011;11223;49.968;9.062;2023-05-19T06:47:56;2.93;;;2.40;;
22113;SDS011;11223;49.968;9.062;2023-05-19T06:50:22;6.63;;;3.20;;
22113;SDS011;11223;49.968;9.062;2023-05-19T06:52:49;2.85;;;2.40;;
22113;SDS011;11223;49.968;9.062;2023-05-19T06:55:14;3.40;;;2.60;;
22113;SDS011;11223;49.968;9.062;2023-05-19T06:57:40;6.90;;;2.93;;
22113;SDS011;11223;49.968;9.062;2023-05-19T07:00:06;4.15;;;2.67;;
22113;SDS011;11223;49.968;9.062;2023-05-19T07:02:38;4.38;;;2.47;;
22113;SDS011;11223;49.968;9.062;2023-05-19T07:05:04;3.80;;;2.43;;
22113;SDS011;11223;49.968;9.062;2023-05-19T07:07:29;3.15;;;2.58;;
22113;SDS011;11223;49.968;9.062;2023-05-19T07:09:55;2.53;;;2.33;;
22113;SDS011;11223;49.968;9.062;2023-05-19T07:12:21;3.20;;;2.00;;
22113;SDS011;11223;49.968;9.062;2023-05-19T07:14:46;2.60;;;2.40;;
22113;SDS011;11223;49.968;9.062;2023-05-19T07:17:12;4.13;;;2.10;;
22113;SDS011;11223;49.968;9.062;2023-05-19T07:19:37;4.83;;;1.80;;
22113;SDS011;11223;49.968;9.062;2023-05-19T07:22:03;4.47;;;1.90;;
22113;SDS011;11223;49.968;9.062;2023-05-19T07:24:28;3.03;;;2.10;;
22113;SDS011;11223;49.968;9.062;2023-05-19T07:26:55;4.32;;;2.75;;
22113;SDS011;11223;49.968;9.062;2023-05-19T07:29:20;3.93;;;2.43;;
22113;SDS011;11223;49.968;9.062;2023-05-19T07:31:46;6.67;;;2.40;;
22113;SDS011;11223;49.968;9.062;2023-05-19T07:34:12;2.80;;;1.90;;
22113;SDS011;11223;49.968;9.062;2023-05-19T07:36:37;4.10;;;2.00;;
22113;SDS011;11223;49.968;9.062;2023-05-19T07:39:03;4.10;;;1.67;;
22113;SDS011;11223;49.968;9.062;2023-05-19T07:41:29;4.40;;;2.03;;
22113;SDS011;11223;49.968;9.062;2023-05-19T07:43:54;2.40;;;2.20;;
22113;SDS011;11223;49.968;9.062;2023-05-19T07:46:20;5.33;;;2.40;;
22113;SDS011;11223;49.968;9.062;2023-05-19T07:48:46;10.63;;;2.30;;
22113;SDS011;11223;49.968;9.062;2023-05-19T07:51:12;3.73;;;2.27;;
22113;SDS011;11223;49.968;9.062;2023-05-19T07:53:37;4.20;;;2.10;;
22113;SDS011;11223;49.968;9.062;2023-05-19T07:56:03;3.43;;;1.50;;
22113;SDS011;11223;49.968;9.062;2023-05-19T07:58:29;4.85;;;2.42;;
22113;SDS011;11223;49.968;9.062;2023-05-19T08:00:58;1.70;;;1.40;;
22113;SDS011;11223;49.968;9.062;2023-05-19T08:03:24;2.05;;;1.70;;
22113;SDS011;11223;49.968;9.062;2023-05-19T08:05:51;2.38;;;1.75;;
22113;SDS011;11223;49.968;9.062;2023-05-19T08:08:16;2.90;;;2.00;;
22113;SDS011;11223;49.968;9.062;2023-05-19T08:10:43;2.53;;;2.17;;
22113;SDS011;11223;49.968;9.062;2023-05-19T08:13:12;3.42;;;2.70;;
22113;SDS011;11223;49.968;9.062;2023-05-19T08:15:37;2.77;;;1.80;;
22113;SDS011;11223;49.968;9.062;2023-05-19T08:18:03;2.60;;;2.00;;
22113;SDS011;11223;49.968;9.062;2023-05-19T08:20:29;4.67;;;2.20;;
22113;SDS011;11223;49.968;9.062;2023-05-19T08:22:55;1.98;;;1.77;;
22113;SDS011;11223;49.968;9.062;2023-05-19T08:25:20;2.93;;;2.20;;
22113;SDS011;11223;49.968;9.062;2023-05-19T08:27:46;4.10;;;3.00;;
22113;SDS011;11223;49.968;9.062;2023-05-19T08:30:12;3.20;;;2.17;;
22113;SDS011;11223;49.968;9.062;2023-05-19T08:32:37;2.80;;;1.67;;
22113;SDS011;11223;49.968;9.062;2023-05-19T08:35:03;1.73;;;1.63;;
22113;SDS011;11223;49.968;9.062;2023-05-19T08:37:29;3.17;;;1.37;;
22113;SDS011;11223;49.968;9.062;2023-05-19T08:39:54;1.87;;;1.73;;
22113;SDS011;11223;49.968;9.062;2023-05-19T08:42:21;2.67;;;1.83;;
22113;SDS011;11223;49.968;9.062;2023-05-19T08:44:46;5.40;;;2.10;;
22113;SDS011;11223;49.968;9.062;2023-05-19T08:47:12;2.00;;;1.33;;
22113;SDS011;11223;49.968;9.062;2023-05-19T08:49:42;5.10;;;1.77;;
22113;SDS011;11223;49.968;9.062;2023-05-19T08:54:57;1.63;;;1.52;;
22113;SDS011;11223;49.968;9.062;2023-05-19T08:57:29;2.95;;;1.63;;
22113;SDS011;11223;49.968;9.062;2023-05-19T08:59:56;3.38;;;1.83;;
22113;SDS011;11223;49.968;9.062;2023-05-19T09:02:23;3.90;;;2.13;;
22113;SDS011;11223;49.968;9.062;2023-05-19T09:04:49;3.70;;;3.40;;
22113;SDS011;11223;49.968;9.062;2023-05-19T09:07:15;2.47;;;1.27;;
22113;SDS011;11223;49.968;9.062;2023-05-19T09:09:42;3.95;;;2.10;;
22113;SDS011;11223;49.968;9.062;2023-05-19T09:12:09;2.20;;;2.00;;
22113;SDS011;11223;49.968;9.062;2023-05-19T09:14:35;3.67;;;1.52;;
22113;SDS011;11223;49.968;9.062;2023-05-19T09:17:02;2.42;;;2.10;;
22113;SDS011;11223;49.968;9.062;2023-05-19T09:19:28;3.63;;;1.90;;
22113;SDS011;11223;49.968;9.062;2023-05-19T09:21:57;1.90;;;1.40;;
22113;SDS011;11223;49.968;9.062;2023-05-19T09:24:30;2.95;;;2.08;;
22113;SDS011;11223;49.968;9.062;2023-05-19T09:26:57;1.70;;;1.60;;
22113;SDS011;11223;49.968;9.062;2023-05-19T09:29:23;1.90;;;1.30;;
22113;SDS011;11223;49.968;9.062;2023-05-19T09:31:50;1.90;;;1.60;;
22113;SDS011;11223;49.968;9.062;2023-05-19T09:34:18;2.40;;;2.10;;
22113;SDS011;11223;49.968;9.062;2023-05-19T09:36:48;1.20;;;1.10;;
22113;SDS011;11223;49.968;9.062;2023-05-19T09:39:17;8.02;;;1.63;;
22113;SDS011;11223;49.968;9.062;2023-05-19T09:41:43;2.17;;;1.48;;
22113;SDS011;11223;49.968;9.062;2023-05-19T09:44:14;3.60;;;1.67;;
22113;SDS011;11223;49.968;9.062;2023-05-19T09:46:55;4.20;;;1.48;;
22113;SDS011;11223;49.968;9.062;2023-05-19T09:49:23;2.92;;;1.20;;
22113;SDS011;11223;49.968;9.062;2023-05-19T09:51:53;3.60;;;1.63;;
22113;SDS011;11223;49.968;9.062;2023-05-19T09:54:20;2.47;;;1.98;;
22113;SDS011;11223;49.968;9.062;2023-05-19T09:56:50;5.13;;;2.00;;
22113;SDS011;11223;49.968;9.062;2023-05-19T09:59:26;1.55;;;1.20;;
22113;SDS011;11223;49.968;9.062;2023-05-19T10:01:53;3.20;;;1.83;;
22113;SDS011;11223;49.968;9.062;2023-05-19T10:04:21;3.58;;;1.75;;
22113;SDS011;11223;49.968;9.062;2023-05-19T10:06:51;2.88;;;2.33;;
22113;SDS011;11223;49.968;9.062;2023-05-19T10:09:22;2.45;;;1.58;;
22113;SDS011;11223;49.968;9.062;2023-05-19T10:11:51;2.65;;;1.45;;
22113;SDS011;11223;49.968;9.062;2023-05-19T10:14:20;1.95;;;1.75;;
22113;SDS011;11223;49.968;9.062;2023-05-19T10:16:52;2.75;;;1.90;;
22113;SDS011;11223;49.968;9.062;2023-05-19T10:19:25;2.58;;;1.50;;
22113;SDS011;11223;49.968;9.062;2023-05-19T10:21:52;1.63;;;1.52;;
22113;SDS011;11223;49.968;9.062;2023-05-19T10:24:18;1.73;;;1.25;;
22113;SDS011;11223;49.968;9.062;2023-05-19T10:26:59;2.85;;;1.60;;
22113;SDS011;11223;49.968;9.062;2023-05-19T10:29:33;1.30;;;1.20;;
22113;SDS011;11223;49.968;9.062;2023-05-19T10:32:05;2.15;;;1.75;;
22113;SDS011;11223;49.968;9.062;2023-05-19T10:34:52;1.77;;;1.30;;
22113;SDS011;11223;49.968;9.062;2023-05-19T10:40:04;2.38;;;1.38;;
22113;SDS011;11223;49.968;9.062;2023-05-19T10:42:48;1.65;;;1.30;;
22113;SDS011;11223;49.968;9.062;2023-05-19T10:45:21;1.80;;;1.05;;
22113;SDS011;11223;49.968;9.062;2023-05-19T10:47:51;2.13;;;1.38;;
22113;SDS011;11223;49.968;9.062;2023-05-19T10:50:16;1.67;;;1.00;;
22113;SDS011;11223;49.968;9.062;2023-05-19T10:52:42;2.97;;;1.73;;
22113;SDS011;11223;49.968;9.062;2023-05-19T10:55:09;2.35;;;1.05;;
22113;SDS011;11223;49.968;9.062;2023-05-19T10:57:52;1.80;;;1.10;;
22113;SDS011;11223;49.968;9.062;2023-05-19T11:00:26;2.10;;;1.40;;
22113;SDS011;11223;49.968;9.062;2023-05-19T11:02:53;4.30;;;1.92;;
22113;SDS011;11223;49.968;9.062;2023-05-19T11:05:39;4.20;;;1.67;;
22113;SDS011;11223;49.968;9.062;2023-05-19T11:08:05;5.20;;;1.93;;
22113;SDS011;11223;49.968;9.062;2023-05-19T11:10:36;1.55;;;1.17;;
22113;SDS011;11223;49.968;9.062;2023-05-19T11:13:03;2.83;;;1.10;;
22113;SDS011;11223;49.968;9.062;2023-05-19T11:15:32;3.72;;;1.50;;
22113;SDS011;11223;49.968;9.062;2023-05-19T11:18:00;1.35;;;1.05;;
22113;SDS011;11223;49.968;9.062;2023-05-19T11:20:27;1.90;;;1.30;;
22113;SDS011;11223;49.968;9.062;2023-05-19T11:23:07;3.20;;;1.27;;
22113;SDS011;11223;49.968;9.062;2023-05-19T11:25:49;1.27;;;1.13;;
22113;SDS011;11223;49.968;9.062;2023-05-19T11:28:17;1.45;;;1.35;;
22113;SDS011;11223;49.968;9.062;2023-05-19T11:30:44;1.70;;;1.10;;
22113;SDS011;11223;49.968;9.062;2023-05-19T11:33:11;1.30;;;1.00;;
22113;SDS011;11223;49.968;9.062;2023-05-19T11:35:38;2.55;;;1.50;;
22113;SDS011;11223;49.968;9.062;2023-05-19T11:38:04;1.48;;;1.17;;
22113;SDS011;11223;49.968;9.062;2023-05-19T11:40:30;1.27;;;1.17;;
22113;SDS011;11223;49.968;9.062;2023-05-19T11:42:57;2.45;;;1.10;;
22113;SDS011;11223;49.968;9.062;2023-05-19T11:45:26;1.58;;;1.00;;
22113;SDS011;11223;49.968;9.062;2023-05-19T11:47:56;1.02;;;0.93;;
22113;SDS011;11223;49.968;9.062;2023-05-19T11:50:23;1.30;;;1.20;;
22113;SDS011;11223;49.968;9.062;2023-05-19T11:52:50;1.42;;;1.20;;
22113;SDS011;11223;49.968;9.062;2023-05-19T11:55:16;2.88;;;1.48;;
22113;SDS011;11223;49.968;9.062;2023-05-19T11:57:59;1.42;;;1.20;;
22113;SDS011;11223;49.968;9.062;2023-05-19T12:00:26;3.63;;;1.75;;
22113;SDS011;11223;49.968;9.062;2023-05-19T12:02:53;5.38;;;2.75;;
22113;SDS011;11223;49.968;9.062;2023-05-19T12:05:20;3.67;;;1.00;;
22113;SDS011;11223;49.968;9.062;2023-05-19T12:07:47;1.45;;;1.10;;
22113;SDS011;11223;49.968;9.062;2023-05-19T12:10:15;2.75;;;1.40;;
22113;SDS011;11223;49.968;9.062;2023-05-19T12:12:43;2.67;;;1.25;;
22113;SDS011;11223;49.968;9.062;2023-05-19T12:15:10;1.45;;;1.27;;
22113;SDS011;11223;49.968;9.062;2023-05-19T12:17:35;1.20;;;1.07;;
22113;SDS011;11223;49.968;9.062;2023-05-19T12:20:01;1.47;;;1.37;;
22113;SDS011;11223;49.968;9.062;2023-05-19T12:22:28;1.38;;;1.27;;
22113;SDS011;11223;49.968;9.062;2023-05-19T12:24:54;1.50;;;1.40;;
22113;SDS011;11223;49.968;9.062;2023-05-19T12:27:23;1.20;;;1.10;;
22113;SDS011;11223;49.968;9.062;2023-05-19T12:29:52;1.23;;;1.10;;
22113;SDS011;11223;49.968;9.062;2023-05-19T12:32:26;1.40;;;1.30;;
22113;SDS011;11223;49.968;9.062;2023-05-19T12:34:52;2.30;;;1.20;;
22113;SDS011;11223;49.968;9.062;2023-05-19T12:37:20;2.55;;;1.17;;
22113;SDS011;11223;49.968;9.062;2023-05-19T12:39:47;7.43;;;1.10;;
22113;SDS011;11223;49.968;9.062;2023-05-19T12:42:14;1.30;;;1.20;;
22113;SDS011;11223;49.968;9.062;2023-05-19T12:44:49;1.90;;;0.80;;
22113;SDS011;11223;49.968;9.062;2023-05-19T12:47:16;1.40;;;1.05;;
22113;SDS011;11223;49.968;9.062;2023-05-19T12:50:20;1.55;;;1.10;;
22113;SDS011;11223;49.968;9.062;2023-05-19T12:52:43;1.95;;;0.90;;
22113;SDS011;11223;49.968;9.062;2023-05-19T12:55:13;1.40;;;1.02;;
22113;SDS011;11223;49.968;9.062;2023-05-19T12:57:41;1.25;;;1.10;;
22113;SDS011;11223;49.968;9.062;2023-05-19T13:00:18;1.27;;;1.17;;
22113;SDS011;11223;49.968;9.062;2023-05-19T13:02:59;1.20;;;1.02;;
22113;SDS011;11223;49.968;9.062;2023-05-19T13:05:39;1.23;;;1.13;;
22113;SDS011;11223;49.968;9.062;2023-05-19T13:08:20;1.10;;;0.95;;
22113;SDS011;11223;49.968;9.062;2023-05-19T13:10:47;1.50;;;1.13;;
22113;SDS011;11223;49.968;9.062;2023-05-19T13:13:13;2.30;;;1.20;;
22113;SDS011;11223;49.968;9.062;2023-05-19T13:15:41;1.27;;;1.15;;
22113;SDS011;11223;49.968;9.062;2023-05-19T13:18:08;1.10;;;0.80;;
22113;SDS011;11223;49.968;9.062;2023-05-19T13:20:35;1.55;;;1.17;;
22113;SDS011;11223;49.968;9.062;2023-05-19T13:23:02;2.20;;;1.48;;
22113;SDS011;11223;49.968;9.062;2023-05-19T13:25:29;2.42;;;1.35;;
22113;SDS011;11223;49.968;9.062;2023-05-19T13:27:56;1.20;;;1.10;;
22113;SDS011;11223;49.968;9.062;2023-05-19T13:30:25;1.73;;;1.15;;
22113;SDS011;11223;49.968;9.062;2023-05-19T13:32:51;2.83;;;2.05;;
22113;SDS011;11223;49.968;9.062;2023-05-19T13:35:16;2.50;;;1.83;;
22113;SDS011;11223;49.968;9.062;2023-05-19T13:37:42;1.47;;;1.37;;
22113;SDS011;11223;49.968;9.062;2023-05-19T13:40:08;4.40;;;1.30;;
22113;SDS011;11223;49.968;9.062;2023-05-19T13:42:34;1.60;;;1.10;;
22113;SDS011;11223;49.968;9.062;2023-05-19T13:45:00;1.70;;;1.40;;
22113;SDS011;11223;49.968;9.062;2023-05-19T13:47:26;1.25;;;1.10;;
22113;SDS011;11223;49.968;9.062;2023-05-19T13:49:52;1.93;;;1.37;;
22113;SDS011;11223;49.968;9.062;2023-05-19T13:52:19;1.23;;;1.13;;
22113;SDS011;11223;49.968;9.062;2023-05-19T13:54:45;1.30;;;0.98;;
22113;SDS011;11223;49.968;9.062;2023-05-19T13:57:11;1.93;;;1.73;;
22113;SDS011;11223;49.968;9.062;2023-05-19T13:59:36;1.63;;;1.40;;
22113;SDS011;11223;49.968;9.062;2023-05-19T14:02:02;1.90;;;1.80;;
22113;SDS011;11223;49.968;9.062;2023-05-19T14:04:28;2.47;;;1.20;;
22113;SDS011;11223;49.968;9.062;2023-05-19T14:06:54;2.30;;;1.50;;
22113;SDS011;11223;49.968;9.062;2023-05-19T14:09:20;1.15;;;0.93;;
22113;SDS011;11223;49.968;9.062;2023-05-19T14:11:46;2.40;;;1.50;;
22113;SDS011;11223;49.968;9.062;2023-05-19T14:14:12;1.90;;;1.73;;
22113;SDS011;11223;49.968;9.062;2023-05-19T14:16:38;1.67;;;1.40;;
22113;SDS011;11223;49.968;9.062;2023-05-19T14:19:05;2.40;;;1.48;;
22113;SDS011;11223;49.968;9.062;2023-05-19T14:21:30;2.20;;;1.40;;
22113;SDS011;11223;49.968;9.062;2023-05-19T14:23:56;2.30;;;1.40;;
22113;SDS011;11223;49.968;9.062;2023-05-19T14:26:22;1.37;;;1.27;;
22113;SDS011;11223;49.968;9.062;2023-05-19T14:28:47;1.83;;;1.50;;
22113;SDS011;11223;49.968;9.062;2023-05-19T14:31:13;1.73;;;1.50;;
22113;SDS011;11223;49.968;9.062;2023-05-19T14:33:39;4.83;;;2.13;;
22113;SDS011;11223;49.968;9.062;2023-05-19T14:36:05;1.50;;;1.15;;
22113;SDS011;11223;49.968;9.062;2023-05-19T14:38:32;1.45;;;1.20;;
22113;SDS011;11223;49.968;9.062;2023-05-19T14:40:57;3.00;;;1.93;;
22113;SDS011;11223;49.968;9.062;2023-05-19T14:43:23;3.13;;;1.60;;
22113;SDS011;11223;49.968;9.062;2023-05-19T14:45:49;1.47;;;1.20;;
22113;SDS011;11223;49.968;9.062;2023-05-19T14:48:14;4.97;;;1.30;;
22113;SDS011;11223;49.968;9.062;2023-05-19T14:50:40;1.80;;;1.20;;
22113;SDS011;11223;49.968;9.062;2023-05-19T14:53:05;1.53;;;1.43;;
22113;SDS011;11223;49.968;9.062;2023-05-19T14:55:31;2.00;;;1.67;;
22113;SDS011;11223;49.968;9.062;2023-05-19T14:57:56;3.30;;;1.63;;
22113;SDS011;11223;49.968;9.062;2023-05-19T15:00:22;2.40;;;1.70;;
22113;SDS011;11223;49.968;9.062;2023-05-19T15:02:50;1.40;;;1.30;;
22113;SDS011;11223;49.968;9.062;2023-05-19T15:05:18;2.05;;;1.70;;
22113;SDS011;11223;49.968;9.062;2023-05-19T15:07:44;3.23;;;1.60;;
22113;SDS011;11223;49.968;9.062;2023-05-19T15:10:10;2.20;;;1.70;;
22113;SDS011;11223;49.968;9.062;2023-05-19T15:12:36;2.33;;;1.73;;